createdAt,value
2022-10-05T00:04:45.894Z,101414.10
2022-10-05T00:10:24.058Z,101421.18
2022-10-05T00:15:47.846Z,101427.30
2022-10-05T00:21:11.700Z,101424.63
2022-10-05T00:26:46.475Z,101418.80
2022-10-05T00:32:09.276Z,101411.72
2022-10-05T00:37:32.760Z,101403.14
2022-10-05T00:43:12.480Z,101407.63
2022-10-05T00:48:42.215Z,101409.67
2022-10-05T00:54:41.310Z,101404.01
2022-10-05T01:00:16.827Z,101403.41
2022-10-05T01:06:09.559Z,101403.06
2022-10-05T01:11:50.459Z,101397.57
2022-10-05T01:17:40.395Z,101390.70
2022-10-05T01:23:25.273Z,101379.63
2022-10-05T01:28:57.391Z,101378.12
2022-10-05T01:34:27.557Z,101364.66
2022-10-05T01:40:01.810Z,101360.36
2022-10-05T01:45:37.910Z,101358.72
2022-10-05T01:51:30.642Z,101353.83
2022-10-05T01:57:15.773Z,101354.60
2022-10-05T02:02:51.713Z,101346.58
2022-10-05T02:08:21.659Z,101332.25
2022-10-05T02:13:54.533Z,101333.74
2022-10-05T02:19:39.917Z,101325.72
2022-10-05T02:25:09.671Z,101336.06
2022-10-05T02:30:26.639Z,101323.09
2022-10-05T02:35:49.599Z,101327.59
2022-10-05T02:41:16.628Z,101338.55
2022-10-05T02:47:01.390Z,101342.95
2022-10-05T02:52:40.539Z,101347.80
2022-10-05T02:58:19.760Z,101344.77
2022-10-05T03:03:51.937Z,101346.58
2022-10-05T03:09:17.277Z,101325.35
2022-10-05T03:14:56.692Z,101337.42
2022-10-05T03:20:29.652Z,101340.36
2022-10-05T03:26:18.474Z,101334.61
2022-10-05T03:32:12.835Z,101321.96
2022-10-05T03:37:58.234Z,101321.36
2022-10-05T03:43:46.485Z,101319.47
2022-10-05T03:49:51.355Z,101316.61
2022-10-05T03:55:34.859Z,101308.22
2022-10-05T04:01:00.829Z,101309.54
2022-10-05T04:06:41.702Z,101295.12
2022-10-05T04:12:38.862Z,101290.86
2022-10-05T04:18:09.086Z,101299.75
2022-10-05T04:23:59.245Z,101283.10
2022-10-05T04:29:41.013Z,101286.64
2022-10-05T04:35:44.090Z,101295.75
2022-10-05T04:41:28.151Z,101272.91
2022-10-05T04:47:20.416Z,101279.20
2022-10-05T04:53:03.798Z,101279.89
2022-10-05T04:59:01.582Z,101256.77
2022-10-05T05:05:02.508Z,101260.40
2022-10-05T05:10:40.035Z,101262.12
2022-10-05T05:16:38.421Z,101269.92
2022-10-05T05:22:19.812Z,101284.87
2022-10-05T05:28:08.583Z,101287.46
2022-10-05T05:33:44.757Z,101288.47
2022-10-05T05:39:29.747Z,101275.75
2022-10-05T05:45:04.580Z,101284.99
2022-10-05T05:51:08.418Z,101268.84
2022-10-05T05:56:35.421Z,101258.40
2022-10-05T06:02:04.035Z,101274.92
2022-10-05T06:07:31.265Z,101275.16
2022-10-05T06:13:08.811Z,101270.91
2022-10-05T06:18:34.527Z,101261.98
2022-10-05T06:24:23.260Z,101267.43
2022-10-05T06:30:05.313Z,101263.46
2022-10-05T06:36:05.598Z,101261.77
2022-10-05T06:41:47.058Z,101252.78
2022-10-05T06:47:38.471Z,101243.07
2022-10-05T06:53:35.915Z,101248.25
2022-10-05T06:59:15.200Z,101239.42
2022-10-05T07:04:54.136Z,101262.46
2022-10-05T07:10:38.853Z,101255.25
2022-10-05T07:16:42.906Z,101258.88
2022-10-05T07:22:26.603Z,101259.11
2022-10-05T07:27:57.200Z,101257.71
2022-10-05T07:34:07.160Z,101260.61
2022-10-05T07:40:00.584Z,101269.40
2022-10-05T07:45:47.137Z,101267.02
2022-10-05T07:51:29.132Z,101274.12
2022-10-05T07:57:02.218Z,101261.04
2022-10-05T08:02:34.898Z,101271.98
2022-10-05T08:08:00.763Z,101280.48
2022-10-05T08:13:48.675Z,101247.91
2022-10-05T08:19:21.681Z,101257.42
2022-10-05T08:25:11.466Z,101255.38
2022-10-05T08:30:36.211Z,101243.66
2022-10-05T08:36:15.010Z,101242.12
2022-10-05T08:41:57.481Z,101240.28
2022-10-05T08:47:28.393Z,101247.34
2022-10-05T08:53:17.460Z,101245.91
2022-10-05T08:59:22.491Z,101261.47
2022-10-05T09:05:32.162Z,101249.46
2022-10-05T09:11:11.085Z,101254.61
2022-10-05T09:16:47.329Z,101242.58
2022-10-05T09:22:17.850Z,101235.46
2022-10-05T09:27:44.099Z,101231.42
2022-10-05T09:33:49.749Z,101226.16
2022-10-05T09:39:35.256Z,101222.27
2022-10-05T09:45:40.159Z,101211.67
2022-10-05T09:51:13.538Z,101222.84
2022-10-05T09:57:27.950Z,101231.95
2022-10-05T10:03:24.763Z,101230.53
2022-10-05T10:09:11.345Z,101225.69
2022-10-05T10:15:02.805Z,101211.28
2022-10-05T10:21:04.378Z,101218.06
2022-10-05T10:27:13.503Z,101214.28
2022-10-05T10:32:49.967Z,101216.44
2022-10-05T10:38:35.676Z,101212.02
2022-10-05T10:44:37.590Z,101221.13
2022-10-05T10:50:24.320Z,101211.50
2022-10-05T10:56:26.986Z,101218.33
2022-10-05T11:02:30.121Z,101211.82
2022-10-05T11:08:05.921Z,101209.07
2022-10-05T11:13:55.940Z,101212.07
2022-10-05T11:19:59.602Z,101208.69
2022-10-05T11:25:48.821Z,101206.19
2022-10-05T11:31:31.682Z,101203.65
2022-10-05T11:37:10.957Z,101211.66
2022-10-05T11:43:09.890Z,101209.97
2022-10-05T11:49:00.892Z,101204.62
2022-10-05T11:55:10.837Z,101196.78
2022-10-05T12:00:40.863Z,101204.47
2022-10-05T12:06:27.937Z,101190.20
2022-10-05T12:12:03.879Z,101187.92
2022-10-05T12:17:48.739Z,101185.48
2022-10-05T12:23:44.602Z,101180.77
2022-10-05T12:29:15.508Z,101171.37
2022-10-05T12:34:49.043Z,101155.95
2022-10-05T12:40:21.509Z,101158.36
2022-10-05T12:46:12.382Z,101160.81
2022-10-05T12:52:06.980Z,101153.23
2022-10-05T12:57:43.758Z,101141.69
2022-10-05T13:03:10.978Z,101124.42
2022-10-05T13:09:03.511Z,101126.98
2022-10-05T13:14:59.042Z,101130.10
2022-10-05T13:20:38.123Z,101119.14
2022-10-05T13:26:05.648Z,101108.00
2022-10-05T13:31:42.035Z,101108.41
2022-10-05T13:37:39.753Z,101092.14
2022-10-05T13:43:21.898Z,101091.44
2022-10-05T13:49:06.576Z,101084.89
2022-10-05T13:54:48.710Z,101078.31
2022-10-05T14:00:30.028Z,101091.73
2022-10-05T14:05:57.976Z,101087.86
2022-10-05T14:11:40.334Z,101086.86
2022-10-05T14:17:10.550Z,101078.57
2022-10-05T14:22:47.846Z,101080.02
2022-10-05T14:28:43.014Z,101078.30
2022-10-05T14:34:06.988Z,101058.62
2022-10-05T14:39:35.725Z,101054.31
2022-10-05T14:45:09.316Z,101074.73
2022-10-05T14:50:40.073Z,101072.02
2022-10-05T14:56:25.157Z,101068.61
2022-10-05T15:02:00.639Z,101082.29
2022-10-05T15:07:30.246Z,101075.30
2022-10-05T15:12:55.638Z,101077.47
2022-10-05T15:18:35.207Z,101068.74
2022-10-05T15:24:10.699Z,101075.77
2022-10-05T15:29:56.930Z,101056.80
2022-10-05T15:36:08.505Z,101058.62
2022-10-05T15:41:40.136Z,101052.91
2022-10-05T15:47:02.374Z,101055.03
2022-10-05T15:52:59.666Z,101047.35
2022-10-05T15:58:39.061Z,101043.36
2022-10-05T16:04:26.810Z,101045.93
2022-10-05T16:09:57.249Z,101040.61
2022-10-05T16:15:33.784Z,101052.16
2022-10-05T16:21:19.530Z,101048.41
2022-10-05T16:27:05.859Z,101045.67
2022-10-05T16:32:39.245Z,101038.77
2022-10-05T16:38:39.074Z,101043.54
2022-10-05T16:44:12.534Z,101047.44
2022-10-05T16:49:54.320Z,101045.94
2022-10-05T16:55:21.388Z,101047.79
2022-10-05T17:00:53.852Z,101050.00
2022-10-05T17:06:37.324Z,101045.13
2022-10-05T17:12:33.013Z,101046.83
2022-10-05T17:18:32.832Z,101045.40
2022-10-05T17:24:49.726Z,101051.52
2022-10-05T17:30:36.542Z,101054.28
2022-10-05T17:36:18.978Z,101053.26
2022-10-05T17:41:44.308Z,101051.82
2022-10-05T17:47:17.552Z,101047.82
2022-10-05T17:53:02.177Z,101053.95
2022-10-05T17:58:55.022Z,101044.52
2022-10-05T18:04:38.050Z,101036.29
2022-10-05T18:16:03.593Z,101030.70
2022-10-05T18:21:38.877Z,101034.98
2022-10-05T18:27:12.114Z,101025.22
2022-10-05T18:33:06.130Z,101018.90
2022-10-05T18:39:03.139Z,101017.59
2022-10-05T18:44:44.941Z,101016.11
2022-10-05T18:50:38.698Z,101011.38
2022-10-05T18:56:39.148Z,101007.28
2022-10-05T19:02:29.373Z,101008.66
2022-10-05T19:08:16.007Z,101009.19
2022-10-05T19:14:13.147Z,101013.92
2022-10-05T19:20:23.981Z,101017.98
2022-10-05T19:26:05.490Z,101010.77
2022-10-05T19:31:56.513Z,101019.95
2022-10-05T19:37:39.063Z,101025.67
2022-10-05T19:43:23.851Z,101026.02
2022-10-05T19:48:55.578Z,101033.72
2022-10-05T19:54:38.809Z,101029.42
2022-10-05T20:00:04.942Z,101036.48
2022-10-05T20:05:27.750Z,101045.48
2022-10-05T20:10:52.070Z,101040.91
2022-10-05T20:16:54.995Z,101051.64
2022-10-05T20:22:42.853Z,101056.82
2022-10-05T20:28:17.112Z,101069.81
2022-10-05T20:33:41.466Z,101075.23
2022-10-05T20:39:04.023Z,101073.02
2022-10-05T20:44:26.183Z,101071.63
2022-10-05T20:49:50.613Z,101073.45
2022-10-05T20:55:14.050Z,101078.92
2022-10-05T21:00:55.197Z,101064.80
2022-10-05T21:11:59.102Z,101065.52
2022-10-05T21:17:21.817Z,101069.88
2022-10-05T21:22:44.306Z,101072.27
2022-10-05T21:28:07.012Z,101064.91
2022-10-05T21:33:29.569Z,101057.09
2022-10-05T21:38:53.101Z,101064.06
2022-10-05T21:44:16.177Z,101064.98
2022-10-05T21:49:38.988Z,101062.48
2022-10-05T21:55:01.111Z,101065.72
2022-10-05T22:00:27.049Z,101068.19
2022-10-05T22:05:49.490Z,101070.64
2022-10-05T22:11:18.077Z,101068.00
2022-10-05T22:16:44.294Z,101077.36
2022-10-05T22:22:11.138Z,101072.19
2022-10-05T22:27:31.693Z,101071.84
2022-10-05T22:32:55.016Z,101078.22
2022-10-05T22:38:17.158Z,101070.70
2022-10-05T22:43:39.418Z,101074.55
2022-10-05T22:49:01.625Z,101079.43
2022-10-05T22:54:28.765Z,101082.52
2022-10-05T22:59:47.871Z,101068.69
2022-10-05T23:05:10.573Z,101079.45
2022-10-05T23:10:34.445Z,101082.88
2022-10-05T23:15:56.609Z,101084.52
2022-10-05T23:21:19.183Z,101087.50
2022-10-05T23:26:42.989Z,101078.87
2022-10-05T23:32:05.123Z,101079.73
2022-10-05T23:37:28.778Z,101085.61
2022-10-05T23:42:51.855Z,101081.46
2022-10-05T23:48:14.098Z,101080.92
2022-10-05T23:53:36.879Z,101082.98
2022-10-05T23:58:59.276Z,101082.25
